sensor_id;sensor_type;location;lat;lon;timestamp;P1;durP1;ratioP1;P2;durP2;ratioP2
59728;SDS011;45588;51.598;5.618;2022-12-07T00:02:13;20.47;;;12.27;;
59728;SDS011;45588;51.598;5.618;2022-12-07T00:04:39;17.73;;;11.52;;
59728;SDS011;45588;51.598;5.618;2022-12-07T00:07:04;16.75;;;11.48;;
59728;SDS011;45588;51.598;5.618;2022-12-07T00:09:29;23.13;;;12.07;;
59728;SDS011;45588;51.598;5.618;2022-12-07T00:11:54;19.27;;;11.23;;
59728;SDS011;45588;51.598;5.618;2022-12-07T00:14:20;20.45;;;12.02;;
59728;SDS011;45588;51.598;5.618;2022-12-07T00:16:45;15.57;;;10.43;;
59728;SDS011;45588;51.598;5.618;2022-12-07T00:19:11;18.25;;;11.23;;
59728;SDS011;45588;51.598;5.618;2022-12-07T00:21:37;18.63;;;11.60;;
59728;SDS011;45588;51.598;5.618;2022-12-07T00:24:02;27.73;;;21.63;;
59728;SDS011;45588;51.598;5.618;2022-12-07T00:26:29;19.67;;;11.50;;
59728;SDS011;45588;51.598;5.618;2022-12-07T00:28:55;19.90;;;10.73;;
59728;SDS011;45588;51.598;5.618;2022-12-07T00:31:22;19.65;;;11.80;;
59728;SDS011;45588;51.598;5.618;2022-12-07T00:33:47;22.63;;;12.38;;
59728;SDS011;45588;51.598;5.618;2022-12-07T00:36:14;20.50;;;12.60;;
59728;SDS011;45588;51.598;5.618;2022-12-07T00:38:40;19.70;;;12.13;;
59728;SDS011;45588;51.598;5.618;2022-12-07T00:41:06;16.30;;;11.30;;
59728;SDS011;45588;51.598;5.618;2022-12-07T00:43:32;19.27;;;12.35;;
59728;SDS011;45588;51.598;5.618;2022-12-07T00:45:58;21.98;;;12.88;;
59728;SDS011;45588;51.598;5.618;2022-12-07T00:48:23;17.20;;;11.85;;
59728;SDS011;45588;51.598;5.618;2022-12-07T00:50:49;18.40;;;12.05;;
59728;SDS011;45588;51.598;5.618;2022-12-07T00:53:14;16.73;;;11.88;;
59728;SDS011;45588;51.598;5.618;2022-12-07T00:55:39;18.35;;;12.55;;
59728;SDS011;45588;51.598;5.618;2022-12-07T00:58:04;19.50;;;12.02;;
59728;SDS011;45588;51.598;5.618;2022-12-07T01:00:30;23.77;;;13.23;;
59728;SDS011;45588;51.598;5.618;2022-12-07T01:02:55;20.65;;;13.43;;
59728;SDS011;45588;51.598;5.618;2022-12-07T01:05:20;19.33;;;12.35;;
59728;SDS011;45588;51.598;5.618;2022-12-07T01:07:45;19.15;;;12.30;;
59728;SDS011;45588;51.598;5.618;2022-12-07T01:10:11;20.40;;;12.18;;
59728;SDS011;45588;51.598;5.618;2022-12-07T01:12:37;18.40;;;12.52;;
59728;SDS011;45588;51.598;5.618;2022-12-07T01:15:02;16.35;;;11.68;;
59728;SDS011;45588;51.598;5.618;2022-12-07T01:17:28;19.92;;;12.85;;
59728;SDS011;45588;51.598;5.618;2022-12-07T01:19:53;16.70;;;11.98;;
59728;SDS011;45588;51.598;5.618;2022-12-07T01:22:18;18.15;;;12.02;;
59728;SDS011;45588;51.598;5.618;2022-12-07T01:24:44;22.02;;;10.85;;
59728;SDS011;45588;51.598;5.618;2022-12-07T01:27:09;20.00;;;12.23;;
59728;SDS011;45588;51.598;5.618;2022-12-07T01:29:34;21.30;;;13.65;;
59728;SDS011;45588;51.598;5.618;2022-12-07T01:31:59;18.52;;;11.57;;
59728;SDS011;45588;51.598;5.618;2022-12-07T01:34:24;21.75;;;12.07;;
59728;SDS011;45588;51.598;5.618;2022-12-07T01:36:49;17.40;;;11.52;;
59728;SDS011;45588;51.598;5.618;2022-12-07T01:39:15;18.60;;;13.35;;
59728;SDS011;45588;51.598;5.618;2022-12-07T01:41:40;21.45;;;11.23;;
59728;SDS011;45588;51.598;5.618;2022-12-07T01:46:32;19.27;;;11.63;;
59728;SDS011;45588;51.598;5.618;2022-12-07T01:48:58;17.75;;;11.63;;
59728;SDS011;45588;51.598;5.618;2022-12-07T01:51:23;15.52;;;11.32;;
59728;SDS011;45588;51.598;5.618;2022-12-07T01:53:48;14.35;;;9.82;;
59728;SDS011;45588;51.598;5.618;2022-12-07T01:56:15;18.80;;;10.38;;
59728;SDS011;45588;51.598;5.618;2022-12-07T01:58:42;21.73;;;11.02;;
59728;SDS011;45588;51.598;5.618;2022-12-07T02:01:07;15.15;;;11.50;;
59728;SDS011;45588;51.598;5.618;2022-12-07T02:03:37;18.73;;;10.63;;
59728;SDS011;45588;51.598;5.618;2022-12-07T02:06:03;19.33;;;11.43;;
59728;SDS011;45588;51.598;5.618;2022-12-07T02:08:29;19.50;;;11.25;;
59728;SDS011;45588;51.598;5.618;2022-12-07T02:10:54;18.35;;;11.02;;
59728;SDS011;45588;51.598;5.618;2022-12-07T02:13:21;14.88;;;10.77;;
59728;SDS011;45588;51.598;5.618;2022-12-07T02:15:56;17.50;;;10.35;;
59728;SDS011;45588;51.598;5.618;2022-12-07T02:20:54;15.88;;;9.88;;
59728;SDS011;45588;51.598;5.618;2022-12-07T02:28:19;16.90;;;9.20;;
59728;SDS011;45588;51.598;5.618;2022-12-07T02:30:50;32.58;;;27.88;;
59728;SDS011;45588;51.598;5.618;2022-12-07T02:33:28;14.80;;;9.50;;
59728;SDS011;45588;51.598;5.618;2022-12-07T02:35:59;18.23;;;10.15;;
59728;SDS011;45588;51.598;5.618;2022-12-07T02:38:27;15.38;;;9.57;;
59728;SDS011;45588;51.598;5.618;2022-12-07T02:41:00;18.92;;;10.55;;
59728;SDS011;45588;51.598;5.618;2022-12-07T02:43:31;18.42;;;12.35;;
59728;SDS011;45588;51.598;5.618;2022-12-07T02:46:01;18.98;;;8.48;;
59728;SDS011;45588;51.598;5.618;2022-12-07T02:48:27;17.92;;;8.90;;
59728;SDS011;45588;51.598;5.618;2022-12-07T02:50:53;16.05;;;9.18;;
59728;SDS011;45588;51.598;5.618;2022-12-07T02:53:31;16.98;;;9.50;;
59728;SDS011;45588;51.598;5.618;2022-12-07T02:55:57;12.00;;;8.88;;
59728;SDS011;45588;51.598;5.618;2022-12-07T02:58:27;16.60;;;10.00;;
59728;SDS011;45588;51.598;5.618;2022-12-07T03:01:03;12.90;;;9.05;;
59728;SDS011;45588;51.598;5.618;2022-12-07T03:03:29;15.70;;;8.80;;
59728;SDS011;45588;51.598;5.618;2022-12-07T03:11:03;15.10;;;9.20;;
59728;SDS011;45588;51.598;5.618;2022-12-07T03:18:23;19.48;;;10.52;;
59728;SDS011;45588;51.598;5.618;2022-12-07T03:20:50;15.07;;;9.60;;
59728;SDS011;45588;51.598;5.618;2022-12-07T03:23:16;14.98;;;9.75;;
59728;SDS011;45588;51.598;5.618;2022-12-07T03:25:45;14.20;;;9.48;;
59728;SDS011;45588;51.598;5.618;2022-12-07T03:28:12;13.68;;;9.82;;
59728;SDS011;45588;51.598;5.618;2022-12-07T03:30:44;15.27;;;10.43;;
59728;SDS011;45588;51.598;5.618;2022-12-07T03:33:12;16.13;;;10.55;;
59728;SDS011;45588;51.598;5.618;2022-12-07T03:36:40;20.23;;;11.32;;
59728;SDS011;45588;51.598;5.618;2022-12-07T03:38:35;14.50;;;9.30;;
59728;SDS011;45588;51.598;5.618;2022-12-07T03:41:09;19.05;;;9.90;;
59728;SDS011;45588;51.598;5.618;2022-12-07T03:43:36;12.65;;;9.50;;
59728;SDS011;45588;51.598;5.618;2022-12-07T03:46:19;15.77;;;10.05;;
59728;SDS011;45588;51.598;5.618;2022-12-07T03:48:50;14.50;;;9.25;;
59728;SDS011;45588;51.598;5.618;2022-12-07T03:51:20;17.77;;;10.60;;
59728;SDS011;45588;51.598;5.618;2022-12-07T03:53:47;17.25;;;9.70;;
59728;SDS011;45588;51.598;5.618;2022-12-07T03:56:15;17.75;;;9.52;;
59728;SDS011;45588;51.598;5.618;2022-12-07T03:58:40;18.67;;;9.20;;
59728;SDS011;45588;51.598;5.618;2022-12-07T04:01:06;13.65;;;10.23;;
59728;SDS011;45588;51.598;5.618;2022-12-07T04:03:31;20.92;;;9.43;;
59728;SDS011;45588;51.598;5.618;2022-12-07T04:05:56;16.83;;;9.60;;
59728;SDS011;45588;51.598;5.618;2022-12-07T04:08:23;16.33;;;11.20;;
59728;SDS011;45588;51.598;5.618;2022-12-07T04:10:48;15.43;;;8.88;;
59728;SDS011;45588;51.598;5.618;2022-12-07T04:13:13;11.82;;;9.18;;
59728;SDS011;45588;51.598;5.618;2022-12-07T04:15:38;16.15;;;9.05;;
59728;SDS011;45588;51.598;5.618;2022-12-07T04:18:03;11.52;;;8.20;;
59728;SDS011;45588;51.598;5.618;2022-12-07T04:20:29;17.88;;;7.78;;
59728;SDS011;45588;51.598;5.618;2022-12-07T04:22:54;16.67;;;7.78;;
59728;SDS011;45588;51.598;5.618;2022-12-07T04:25:19;10.48;;;8.27;;
59728;SDS011;45588;51.598;5.618;2022-12-07T04:27:44;11.90;;;8.52;;
59728;SDS011;45588;51.598;5.618;2022-12-07T04:30:09;14.02;;;8.38;;
59728;SDS011;45588;51.598;5.618;2022-12-07T04:32:35;15.30;;;8.88;;
59728;SDS011;45588;51.598;5.618;2022-12-07T04:35:00;16.33;;;9.05;;
59728;SDS011;45588;51.598;5.618;2022-12-07T04:37:25;12.63;;;8.18;;
59728;SDS011;45588;51.598;5.618;2022-12-07T04:39:50;16.05;;;8.80;;
59728;SDS011;45588;51.598;5.618;2022-12-07T04:42:16;16.42;;;9.27;;
59728;SDS011;45588;51.598;5.618;2022-12-07T04:44:41;10.60;;;7.63;;
59728;SDS011;45588;51.598;5.618;2022-12-07T04:47:06;11.97;;;8.37;;
59728;SDS011;45588;51.598;5.618;2022-12-07T04:49:31;12.60;;;8.25;;
59728;SDS011;45588;51.598;5.618;2022-12-07T04:51:56;14.55;;;8.25;;
59728;SDS011;45588;51.598;5.618;2022-12-07T04:54:22;15.85;;;6.82;;
59728;SDS011;45588;51.598;5.618;2022-12-07T04:56:47;12.07;;;7.78;;
59728;SDS011;45588;51.598;5.618;2022-12-07T04:59:12;9.80;;;6.78;;
59728;SDS011;45588;51.598;5.618;2022-12-07T05:01:39;9.35;;;7.03;;
59728;SDS011;45588;51.598;5.618;2022-12-07T05:04:04;11.30;;;7.70;;
59728;SDS011;45588;51.598;5.618;2022-12-07T05:06:29;10.98;;;7.28;;
59728;SDS011;45588;51.598;5.618;2022-12-07T05:08:54;10.07;;;6.73;;
59728;SDS011;45588;51.598;5.618;2022-12-07T05:11:19;13.60;;;8.02;;
59728;SDS011;45588;51.598;5.618;2022-12-07T05:14:03;10.90;;;7.40;;
59728;SDS011;45588;51.598;5.618;2022-12-07T05:16:29;10.55;;;6.57;;
59728;SDS011;45588;51.598;5.618;2022-12-07T05:18:54;8.38;;;5.90;;
59728;SDS011;45588;51.598;5.618;2022-12-07T05:21:20;14.68;;;7.15;;
59728;SDS011;45588;51.598;5.618;2022-12-07T05:23:45;10.32;;;6.65;;
59728;SDS011;45588;51.598;5.618;2022-12-07T05:26:10;13.57;;;6.40;;
59728;SDS011;45588;51.598;5.618;2022-12-07T05:28:35;18.30;;;6.13;;
59728;SDS011;45588;51.598;5.618;2022-12-07T05:31:00;15.30;;;6.38;;
59728;SDS011;45588;51.598;5.618;2022-12-07T05:33:26;8.07;;;6.53;;
59728;SDS011;45588;51.598;5.618;2022-12-07T05:35:51;12.25;;;6.95;;
59728;SDS011;45588;51.598;5.618;2022-12-07T05:38:16;11.35;;;5.90;;
59728;SDS011;45588;51.598;5.618;2022-12-07T05:40:41;9.93;;;7.22;;
59728;SDS011;45588;51.598;5.618;2022-12-07T05:43:06;13.82;;;7.22;;
59728;SDS011;45588;51.598;5.618;2022-12-07T05:45:31;11.55;;;7.30;;
59728;SDS011;45588;51.598;5.618;2022-12-07T05:47:57;10.10;;;6.38;;
59728;SDS011;45588;51.598;5.618;2022-12-07T05:50:22;12.52;;;6.10;;
59728;SDS011;45588;51.598;5.618;2022-12-07T05:52:47;12.07;;;6.55;;
59728;SDS011;45588;51.598;5.618;2022-12-07T05:55:12;15.98;;;7.05;;
59728;SDS011;45588;51.598;5.618;2022-12-07T05:57:38;15.48;;;6.85;;
59728;SDS011;45588;51.598;5.618;2022-12-07T06:00:03;11.55;;;7.15;;
59728;SDS011;45588;51.598;5.618;2022-12-07T06:02:29;13.95;;;6.68;;
59728;SDS011;45588;51.598;5.618;2022-12-07T06:04:54;15.00;;;6.13;;
59728;SDS011;45588;51.598;5.618;2022-12-07T06:07:19;19.48;;;6.40;;
59728;SDS011;45588;51.598;5.618;2022-12-07T06:09:44;13.18;;;7.60;;
59728;SDS011;45588;51.598;5.618;2022-12-07T06:12:10;14.65;;;6.90;;
59728;SDS011;45588;51.598;5.618;2022-12-07T06:14:54;15.05;;;7.35;;
59728;SDS011;45588;51.598;5.618;2022-12-07T06:17:19;11.95;;;6.28;;
59728;SDS011;45588;51.598;5.618;2022-12-07T06:19:44;12.05;;;7.10;;
59728;SDS011;45588;51.598;5.618;2022-12-07T06:22:10;11.55;;;6.82;;
59728;SDS011;45588;51.598;5.618;2022-12-07T06:24:36;11.23;;;6.93;;
59728;SDS011;45588;51.598;5.618;2022-12-07T06:27:02;13.02;;;7.30;;
59728;SDS011;45588;51.598;5.618;2022-12-07T06:29:27;11.80;;;7.28;;
59728;SDS011;45588;51.598;5.618;2022-12-07T06:31:52;12.73;;;7.32;;
59728;SDS011;45588;51.598;5.618;2022-12-07T06:34:19;13.65;;;7.20;;
59728;SDS011;45588;51.598;5.618;2022-12-07T06:36:44;10.43;;;7.32;;
59728;SDS011;45588;51.598;5.618;2022-12-07T06:39:10;16.27;;;7.57;;
59728;SDS011;45588;51.598;5.618;2022-12-07T06:41:38;15.43;;;7.47;;
59728;SDS011;45588;51.598;5.618;2022-12-07T06:44:04;16.30;;;9.50;;
59728;SDS011;45588;51.598;5.618;2022-12-07T06:46:30;13.52;;;7.35;;
59728;SDS011;45588;51.598;5.618;2022-12-07T06:48:55;12.73;;;7.95;;
59728;SDS011;45588;51.598;5.618;2022-12-07T06:51:20;16.23;;;7.85;;
59728;SDS011;45588;51.598;5.618;2022-12-07T06:53:45;14.18;;;7.47;;
59728;SDS011;45588;51.598;5.618;2022-12-07T06:56:10;13.90;;;8.55;;
59728;SDS011;45588;51.598;5.618;2022-12-07T06:58:36;12.40;;;7.93;;
59728;SDS011;45588;51.598;5.618;2022-12-07T07:01:01;12.00;;;8.13;;
59728;SDS011;45588;51.598;5.618;2022-12-07T07:03:27;24.25;;;9.77;;
59728;SDS011;45588;51.598;5.618;2022-12-07T07:05:53;15.52;;;9.20;;
59728;SDS011;45588;51.598;5.618;2022-12-07T07:08:18;16.05;;;8.65;;
59728;SDS011;45588;51.598;5.618;2022-12-07T07:10:43;15.50;;;9.25;;
59728;SDS011;45588;51.598;5.618;2022-12-07T07:13:08;15.13;;;8.60;;
59728;SDS011;45588;51.598;5.618;2022-12-07T07:15:34;13.73;;;9.20;;
59728;SDS011;45588;51.598;5.618;2022-12-07T07:18:00;18.70;;;9.38;;
59728;SDS011;45588;51.598;5.618;2022-12-07T07:20:25;17.88;;;9.27;;
59728;SDS011;45588;51.598;5.618;2022-12-07T07:22:51;19.25;;;10.95;;
59728;SDS011;45588;51.598;5.618;2022-12-07T07:25:18;15.27;;;9.60;;
59728;SDS011;45588;51.598;5.618;2022-12-07T07:27:43;15.88;;;8.52;;
59728;SDS011;45588;51.598;5.618;2022-12-07T07:30:09;18.17;;;10.00;;
59728;SDS011;45588;51.598;5.618;2022-12-07T07:32:34;22.20;;;10.73;;
59728;SDS011;45588;51.598;5.618;2022-12-07T07:34:59;19.45;;;10.00;;
59728;SDS011;45588;51.598;5.618;2022-12-07T07:37:24;17.75;;;10.07;;
59728;SDS011;45588;51.598;5.618;2022-12-07T07:39:50;14.73;;;10.73;;
59728;SDS011;45588;51.598;5.618;2022-12-07T07:42:15;16.57;;;9.03;;
59728;SDS011;45588;51.598;5.618;2022-12-07T07:44:40;23.90;;;9.48;;
59728;SDS011;45588;51.598;5.618;2022-12-07T07:47:05;23.05;;;10.55;;
59728;SDS011;45588;51.598;5.618;2022-12-07T07:49:30;15.85;;;9.23;;
59728;SDS011;45588;51.598;5.618;2022-12-07T07:51:56;19.20;;;9.68;;
59728;SDS011;45588;51.598;5.618;2022-12-07T07:54:21;18.90;;;10.35;;
59728;SDS011;45588;51.598;5.618;2022-12-07T07:56:46;14.50;;;9.95;;
59728;SDS011;45588;51.598;5.618;2022-12-07T07:59:11;19.52;;;10.73;;
59728;SDS011;45588;51.598;5.618;2022-12-07T08:01:36;21.27;;;8.95;;
59728;SDS011;45588;51.598;5.618;2022-12-07T08:04:01;19.90;;;10.63;;
59728;SDS011;45588;51.598;5.618;2022-12-07T08:06:27;19.02;;;9.90;;
59728;SDS011;45588;51.598;5.618;2022-12-07T08:08:52;19.85;;;11.60;;
59728;SDS011;45588;51.598;5.618;2022-12-07T08:11:17;20.50;;;9.82;;
59728;SDS011;45588;51.598;5.618;2022-12-07T08:13:44;22.85;;;10.50;;
59728;SDS011;45588;51.598;5.618;2022-12-07T08:16:10;18.55;;;9.50;;
59728;SDS011;45588;51.598;5.618;2022-12-07T08:18:36;18.88;;;10.82;;
59728;SDS011;45588;51.598;5.618;2022-12-07T08:21:02;18.00;;;9.68;;
59728;SDS011;45588;51.598;5.618;2022-12-07T08:23:27;21.20;;;10.80;;
59728;SDS011;45588;51.598;5.618;2022-12-07T08:25:52;18.95;;;9.52;;
59728;SDS011;45588;51.598;5.618;2022-12-07T08:28:18;22.45;;;9.43;;
59728;SDS011;45588;51.598;5.618;2022-12-07T08:30:43;19.67;;;10.55;;
59728;SDS011;45588;51.598;5.618;2022-12-07T08:33:09;19.95;;;10.60;;
59728;SDS011;45588;51.598;5.618;2022-12-07T08:35:35;22.55;;;9.88;;
59728;SDS011;45588;51.598;5.618;2022-12-07T08:38:00;16.10;;;9.52;;
59728;SDS011;45588;51.598;5.618;2022-12-07T08:40:27;23.75;;;9.57;;
59728;SDS011;45588;51.598;5.618;2022-12-07T08:42:52;16.52;;;9.48;;
59728;SDS011;45588;51.598;5.618;2022-12-07T08:45:17;17.80;;;10.40;;
59728;SDS011;45588;51.598;5.618;2022-12-07T08:47:44;15.52;;;9.75;;
59728;SDS011;45588;51.598;5.618;2022-12-07T08:50:10;23.92;;;10.75;;
59728;SDS011;45588;51.598;5.618;2022-12-07T08:52:36;17.58;;;10.15;;
59728;SDS011;45588;51.598;5.618;2022-12-07T08:55:02;14.50;;;9.82;;
59728;SDS011;45588;51.598;5.618;2022-12-07T08:57:28;24.50;;;10.90;;
59728;SDS011;45588;51.598;5.618;2022-12-07T08:59:53;20.13;;;10.15;;
59728;SDS011;45588;51.598;5.618;2022-12-07T09:02:19;20.23;;;10.45;;
59728;SDS011;45588;51.598;5.618;2022-12-07T09:04:44;14.13;;;9.90;;
59728;SDS011;45588;51.598;5.618;2022-12-07T09:07:09;21.15;;;10.05;;
59728;SDS011;45588;51.598;5.618;2022-12-07T09:09:34;15.82;;;10.00;;
59728;SDS011;45588;51.598;5.618;2022-12-07T09:11:59;19.20;;;10.27;;
59728;SDS011;45588;51.598;5.618;2022-12-07T09:14:25;26.73;;;9.50;;
59728;SDS011;45588;51.598;5.618;2022-12-07T09:16:50;17.10;;;9.50;;
59728;SDS011;45588;51.598;5.618;2022-12-07T09:19:15;20.73;;;10.27;;
59728;SDS011;45588;51.598;5.618;2022-12-07T09:21:40;17.23;;;9.05;;
59728;SDS011;45588;51.598;5.618;2022-12-07T09:24:06;15.20;;;9.73;;
59728;SDS011;45588;51.598;5.618;2022-12-07T09:26:32;14.38;;;8.60;;
59728;SDS011;45588;51.598;5.618;2022-12-07T09:28:57;19.55;;;9.10;;
59728;SDS011;45588;51.598;5.618;2022-12-07T09:31:22;24.27;;;10.00;;
59728;SDS011;45588;51.598;5.618;2022-12-07T09:33:52;18.02;;;10.20;;
59728;SDS011;45588;51.598;5.618;2022-12-07T09:36:17;12.55;;;8.52;;
59728;SDS011;45588;51.598;5.618;2022-12-07T09:38:42;13.70;;;8.63;;
59728;SDS011;45588;51.598;5.618;2022-12-07T09:41:08;19.40;;;10.97;;
59728;SDS011;45588;51.598;5.618;2022-12-07T09:43:33;18.00;;;9.30;;
59728;SDS011;45588;51.598;5.618;2022-12-07T09:45:59;14.70;;;8.68;;
59728;SDS011;45588;51.598;5.618;2022-12-07T09:48:32;13.88;;;8.68;;
59728;SDS011;45588;51.598;5.618;2022-12-07T09:50:58;19.67;;;9.20;;
59728;SDS011;45588;51.598;5.618;2022-12-07T09:53:28;14.68;;;8.90;;
59728;SDS011;45588;51.598;5.618;2022-12-07T09:55:55;23.45;;;10.30;;
59728;SDS011;45588;51.598;5.618;2022-12-07T09:58:22;17.33;;;15.27;;
59728;SDS011;45588;51.598;5.618;2022-12-07T10:00:48;19.35;;;9.60;;
59728;SDS011;45588;51.598;5.618;2022-12-07T10:03:13;11.13;;;8.38;;
59728;SDS011;45588;51.598;5.618;2022-12-07T10:05:40;11.98;;;7.55;;
59728;SDS011;45588;51.598;5.618;2022-12-07T10:08:11;10.93;;;7.88;;
59728;SDS011;45588;51.598;5.618;2022-12-07T10:10:36;17.27;;;7.28;;
59728;SDS011;45588;51.598;5.618;2022-12-07T10:13:09;16.63;;;8.50;;
59728;SDS011;45588;51.598;5.618;2022-12-07T10:15:54;14.35;;;6.78;;
59728;SDS011;45588;51.598;5.618;2022-12-07T10:23:17;16.95;;;7.75;;
59728;SDS011;45588;51.598;5.618;2022-12-07T10:25:43;10.25;;;6.20;;
59728;SDS011;45588;51.598;5.618;2022-12-07T10:30:45;15.50;;;7.07;;
59728;SDS011;45588;51.598;5.618;2022-12-07T10:35:54;13.50;;;6.10;;
59728;SDS011;45588;51.598;5.618;2022-12-07T10:38:20;9.88;;;6.13;;
59728;SDS011;45588;51.598;5.618;2022-12-07T10:40:46;9.70;;;5.50;;
59728;SDS011;45588;51.598;5.618;2022-12-07T10:45:38;6.30;;;3.85;;
59728;SDS011;45588;51.598;5.618;2022-12-07T10:48:14;8.27;;;4.03;;
59728;SDS011;45588;51.598;5.618;2022-12-07T10:53:36;15.13;;;6.03;;
59728;SDS011;45588;51.598;5.618;2022-12-07T11:01:04;7.78;;;3.65;;
59728;SDS011;45588;51.598;5.618;2022-12-07T11:03:37;6.65;;;3.92;;
59728;SDS011;45588;51.598;5.618;2022-12-07T11:06:14;10.45;;;4.88;;
59728;SDS011;45588;51.598;5.618;2022-12-07T11:11:33;14.15;;;7.85;;
59728;SDS011;45588;51.598;5.618;2022-12-07T11:16:48;10.93;;;4.85;;
59728;SDS011;45588;51.598;5.618;2022-12-07T11:20:00;12.48;;;2.78;;
59728;SDS011;45588;51.598;5.618;2022-12-07T11:22:06;6.80;;;3.75;;
59728;SDS011;45588;51.598;5.618;2022-12-07T11:27:26;12.02;;;3.88;;
59728;SDS011;45588;51.598;5.618;2022-12-07T11:30:08;10.90;;;3.88;;
59728;SDS011;45588;51.598;5.618;2022-12-07T11:35:08;6.22;;;4.30;;
59728;SDS011;45588;51.598;5.618;2022-12-07T11:37:36;6.95;;;3.10;;
59728;SDS011;45588;51.598;5.618;2022-12-07T11:40:24;11.02;;;4.03;;
59728;SDS011;45588;51.598;5.618;2022-12-07T11:42:52;8.48;;;4.20;;
59728;SDS011;45588;51.598;5.618;2022-12-07T11:45:29;11.65;;;5.90;;
59728;SDS011;45588;51.598;5.618;2022-12-07T11:47:57;6.90;;;3.80;;
59728;SDS011;45588;51.598;5.618;2022-12-07T11:55:42;7.20;;;3.28;;
59728;SDS011;45588;51.598;5.618;2022-12-07T11:58:15;7.10;;;3.83;;
59728;SDS011;45588;51.598;5.618;2022-12-07T12:00:46;8.02;;;3.40;;
59728;SDS011;45588;51.598;5.618;2022-12-07T12:03:17;7.85;;;3.85;;
59728;SDS011;45588;51.598;5.618;2022-12-07T12:05:46;8.75;;;3.65;;
59728;SDS011;45588;51.598;5.618;2022-12-07T12:10:42;11.18;;;3.20;;
59728;SDS011;45588;51.598;5.618;2022-12-07T12:13:27;8.70;;;3.17;;
59728;SDS011;45588;51.598;5.618;2022-12-07T12:21:02;4.18;;;3.03;;
59728;SDS011;45588;51.598;5.618;2022-12-07T12:25:57;5.60;;;2.97;;
59728;SDS011;45588;51.598;5.618;2022-12-07T12:28:26;8.68;;;5.00;;
59728;SDS011;45588;51.598;5.618;2022-12-07T12:33:36;11.60;;;4.13;;
59728;SDS011;45588;51.598;5.618;2022-12-07T12:38:34;7.57;;;3.00;;
59728;SDS011;45588;51.598;5.618;2022-12-07T12:41:50;7.18;;;2.72;;
59728;SDS011;45588;51.598;5.618;2022-12-07T12:43:58;8.05;;;2.72;;
59728;SDS011;45588;51.598;5.618;2022-12-07T12:48:55;7.50;;;2.33;;
59728;SDS011;45588;51.598;5.618;2022-12-07T12:54:04;6.27;;;1.93;;
59728;SDS011;45588;51.598;5.618;2022-12-07T13:01:47;6.78;;;2.70;;
59728;SDS011;45588;51.598;5.618;2022-12-07T13:04:17;6.35;;;2.25;;
59728;SDS011;45588;51.598;5.618;2022-12-07T13:06:43;6.15;;;2.28;;
59728;SDS011;45588;51.598;5.618;2022-12-07T13:09:17;3.20;;;1.15;;
59728;SDS011;45588;51.598;5.618;2022-12-07T13:11:44;5.20;;;1.75;;
59728;SDS011;45588;51.598;5.618;2022-12-07T13:16:54;4.60;;;1.90;;
59728;SDS011;45588;51.598;5.618;2022-12-07T13:22:03;5.55;;;1.73;;
59728;SDS011;45588;51.598;5.618;2022-12-07T13:24:28;4.27;;;1.73;;
59728;SDS011;45588;51.598;5.618;2022-12-07T13:26:56;8.40;;;2.25;;
59728;SDS011;45588;51.598;5.618;2022-12-07T13:29:22;5.38;;;2.15;;
59728;SDS011;45588;51.598;5.618;2022-12-07T13:36:53;5.85;;;1.33;;
59728;SDS011;45588;51.598;5.618;2022-12-07T13:39:20;7.30;;;2.38;;
59728;SDS011;45588;51.598;5.618;2022-12-07T13:41:57;13.48;;;4.22;;
59728;SDS011;45588;51.598;5.618;2022-12-07T13:44:22;19.95;;;9.60;;
59728;SDS011;45588;51.598;5.618;2022-12-07T13:46:52;7.82;;;3.25;;
59728;SDS011;45588;51.598;5.618;2022-12-07T13:49:25;6.35;;;3.80;;
59728;SDS011;45588;51.598;5.618;2022-12-07T13:51:51;6.97;;;2.17;;
59728;SDS011;45588;51.598;5.618;2022-12-07T13:54:16;5.55;;;1.92;;
59728;SDS011;45588;51.598;5.618;2022-12-07T13:56:42;5.40;;;2.33;;
59728;SDS011;45588;51.598;5.618;2022-12-07T13:59:25;3.60;;;2.53;;
59728;SDS011;45588;51.598;5.618;2022-12-07T14:01:51;6.32;;;2.47;;
59728;SDS011;45588;51.598;5.618;2022-12-07T14:04:18;3.53;;;1.98;;
59728;SDS011;45588;51.598;5.618;2022-12-07T14:06:48;4.15;;;1.70;;
59728;SDS011;45588;51.598;5.618;2022-12-07T14:09:20;8.30;;;2.88;;
59728;SDS011;45588;51.598;5.618;2022-12-07T14:11:47;7.35;;;2.67;;
59728;SDS011;45588;51.598;5.618;2022-12-07T14:14:17;9.00;;;2.17;;
59728;SDS011;45588;51.598;5.618;2022-12-07T14:16:43;5.60;;;2.05;;
59728;SDS011;45588;51.598;5.618;2022-12-07T14:19:41;11.43;;;2.17;;
59728;SDS011;45588;51.598;5.618;2022-12-07T14:22:07;3.15;;;2.10;;
59728;SDS011;45588;51.598;5.618;2022-12-07T14:24:40;8.85;;;4.13;;
59728;SDS011;45588;51.598;5.618;2022-12-07T14:27:15;3.80;;;2.00;;
59728;SDS011;45588;51.598;5.618;2022-12-07T14:29:41;4.88;;;2.97;;
59728;SDS011;45588;51.598;5.618;2022-12-07T14:32:23;5.78;;;2.55;;
59728;SDS011;45588;51.598;5.618;2022-12-07T14:35:03;5.55;;;2.83;;
59728;SDS011;45588;51.598;5.618;2022-12-07T14:37:33;8.18;;;2.88;;
59728;SDS011;45588;51.598;5.618;2022-12-07T14:39:58;7.23;;;2.67;;
59728;SDS011;45588;51.598;5.618;2022-12-07T14:42:24;5.43;;;3.45;;
59728;SDS011;45588;51.598;5.618;2022-12-07T14:44:51;4.05;;;2.90;;
59728;SDS011;45588;51.598;5.618;2022-12-07T14:47:16;9.13;;;2.63;;
59728;SDS011;45588;51.598;5.618;2022-12-07T14:49:41;4.32;;;2.30;;
59728;SDS011;45588;51.598;5.618;2022-12-07T14:52:08;2.55;;;1.10;;
59728;SDS011;45588;51.598;5.618;2022-12-07T14:54:36;2.58;;;0.60;;
59728;SDS011;45588;51.598;5.618;2022-12-07T14:57:01;1.33;;;0.68;;
59728;SDS011;45588;51.598;5.618;2022-12-07T14:59:26;5.72;;;1.17;;
59728;SDS011;45588;51.598;5.618;2022-12-07T15:01:52;4.68;;;0.85;;
59728;SDS011;45588;51.598;5.618;2022-12-07T15:04:17;4.38;;;1.15;;
59728;SDS011;45588;51.598;5.618;2022-12-07T15:06:48;3.08;;;1.20;;
59728;SDS011;45588;51.598;5.618;2022-12-07T15:09:19;3.28;;;1.20;;
59728;SDS011;45588;51.598;5.618;2022-12-07T15:11:44;1.20;;;0.85;;
59728;SDS011;45588;51.598;5.618;2022-12-07T15:14:09;4.00;;;1.00;;
59728;SDS011;45588;51.598;5.618;2022-12-07T15:16:36;4.25;;;1.35;;
59728;SDS011;45588;51.598;5.618;2022-12-07T15:19:02;2.28;;;1.67;;
59728;SDS011;45588;51.598;5.618;2022-12-07T15:21:27;4.55;;;1.67;;
59728;SDS011;45588;51.598;5.618;2022-12-07T15:23:52;5.55;;;2.38;;
59728;SDS011;45588;51.598;5.618;2022-12-07T15:26:18;2.90;;;1.25;;
59728;SDS011;45588;51.598;5.618;2022-12-07T15:28:43;4.10;;;1.60;;
59728;SDS011;45588;51.598;5.618;2022-12-07T15:31:15;5.10;;;1.75;;
59728;SDS011;45588;51.598;5.618;2022-12-07T15:33:40;8.07;;;1.80;;
59728;SDS011;45588;51.598;5.618;2022-12-07T15:36:05;9.77;;;5.05;;
59728;SDS011;45588;51.598;5.618;2022-12-07T15:38:31;7.40;;;4.72;;
59728;SDS011;45588;51.598;5.618;2022-12-07T15:40:56;6.28;;;3.47;;
59728;SDS011;45588;51.598;5.618;2022-12-07T15:43:21;5.95;;;3.45;;
59728;SDS011;45588;51.598;5.618;2022-12-07T15:46:05;2.88;;;1.83;;
59728;SDS011;45588;51.598;5.618;2022-12-07T15:48:30;1.65;;;1.23;;
59728;SDS011;45588;51.598;5.618;2022-12-07T15:51:05;4.47;;;1.95;;
59728;SDS011;45588;51.598;5.618;2022-12-07T15:53:31;10.13;;;3.17;;
59728;SDS011;45588;51.598;5.618;2022-12-07T15:55:56;5.25;;;2.75;;
59728;SDS011;45588;51.598;5.618;2022-12-07T15:58:21;8.40;;;3.20;;
59728;SDS011;45588;51.598;5.618;2022-12-07T16:00:46;5.53;;;3.05;;
59728;SDS011;45588;51.598;5.618;2022-12-07T16:03:13;6.93;;;3.25;;
59728;SDS011;45588;51.598;5.618;2022-12-07T16:05:38;5.45;;;2.47;;
59728;SDS011;45588;51.598;5.618;2022-12-07T16:08:03;3.28;;;2.47;;